Time;durP1;ratioP1;P1;durP2;ratioP2;P2;SDS_P1;SDS_P2;PMS_P1;PMS_P2;Temp;Humidity;BMP_temperature;BMP_pressure;BME280_temperature;BME280_humidity;BME280_pressure;Samples;Min_cycle;Max_cycle;Signal;HPM_P1;HPM_P2
2023/04/27 00:00:59;695441.00;2.32;1199.33;116197.00;0.39;201.52;;;;;13.10;1.00;;;;;;2268213;61;1602;-88
2023/04/27 00:03:27;567293.00;1.89;977.78;90848.00;0.30;157.77;;;;;13.10;1.00;;;;;;2267986;61;1392;-89
2023/04/27 00:05:53;729499.00;2.43;1258.43;92244.00;0.31;160.18;;;;;13.10;1.00;;;;;;2268263;61;1911;-89
2023/04/27 00:08:20;432641.00;1.44;745.93;101304.00;0.34;175.82;;;;;13.00;1.00;;;;;;2268186;61;1603;-89
2023/04/27 00:10:49;853471.00;2.84;1474.54;119411.00;0.40;207.07;;;;;13.10;1.00;;;;;;2268289;61;1703;-88
2023/04/27 00:13:16;666724.00;2.22;1149.58;145156.00;0.48;251.46;;;;;13.00;1.00;;;;;;2281453;40;3605;-88
2023/04/27 00:15:44;556582.00;1.86;959.31;80744.00;0.27;140.32;;;;;12.90;1.00;;;;;;2276253;61;963;-89
2023/04/27 00:18:11;415621.00;1.39;716.66;109186.00;0.36;189.43;;;;;12.80;1.00;;;;;;2276294;61;1027;-88
2023/04/27 00:20:38;786850.00;2.62;1358.20;139596.00;0.47;241.87;;;;;12.90;1.00;;;;;;2276237;61;1012;-91
2023/04/27 00:23:05;759494.00;2.53;1310.57;116378.00;0.39;201.83;;;;;12.80;1.00;;;;;;2276064;61;1353;-89
2023/04/27 00:25:32;475701.00;1.59;820.00;110161.00;0.37;191.11;;;;;12.80;1.00;;;;;;2276244;61;1994;-90
2023/04/27 00:28:01;515813.00;1.72;889.05;86175.00;0.29;149.70;;;;;12.80;1.00;;;;;;2276260;61;910;-88
2023/04/27 00:30:28;429664.00;1.43;740.81;97997.00;0.33;170.11;;;;;12.90;1.00;;;;;;2276147;61;1109;-90
2023/04/27 00:35:24;493123.00;1.64;849.98;94391.00;0.31;163.89;;;;;12.80;1.00;;;;;;2269702;61;1410;-89
2023/04/27 00:37:53;622993.00;2.08;1073.94;125698.00;0.42;217.91;;;;;13.00;1.00;;;;;;2268084;61;1213;-89
2023/04/27 00:40:20;541182.00;1.80;932.76;105701.00;0.35;183.41;;;;;12.90;1.00;;;;;;2268078;61;1005;-87
2023/04/27 00:42:47;653227.00;2.18;1126.22;101172.00;0.34;175.59;;;;;12.90;1.00;;;;;;2268118;61;1440;-89
2023/04/27 00:45:15;372031.00;1.24;641.73;91399.00;0.30;158.72;;;;;12.80;1.00;;;;;;2268156;61;2011;-89
2023/04/27 00:47:43;540338.00;1.80;931.31;74927.00;0.25;130.27;;;;;12.80;1.00;;;;;;2268232;61;997;-88
2023/04/27 00:50:11;487533.00;1.63;840.36;135280.00;0.45;234.43;;;;;12.80;1.00;;;;;;2268037;61;1040;-88
2023/04/27 00:52:39;530307.00;1.77;914.02;91590.00;0.31;159.05;;;;;12.80;1.00;;;;;;2268090;61;1382;-89
2023/04/27 00:55:07;570997.00;1.90;984.17;80239.00;0.27;139.45;;;;;12.90;1.00;;;;;;2267986;61;1620;-88
2023/04/27 00:57:34;482929.00;1.61;832.44;102877.00;0.34;178.54;;;;;13.00;1.00;;;;;;2268125;61;1739;-89
2023/04/27 01:00:03;492885.00;1.64;849.58;104072.00;0.35;180.60;;;;;13.10;1.00;;;;;;2268055;61;1519;-88
2023/04/27 01:02:32;428405.00;1.43;738.64;96355.00;0.32;167.28;;;;;13.10;1.00;;;;;;2268025;61;1691;-89
2023/04/27 01:04:59;712167.00;2.37;1228.34;143272.00;0.48;248.21;;;;;12.80;1.00;;;;;;2267910;61;2001;-88
2023/04/27 01:07:26;539098.00;1.80;929.17;93586.00;0.31;162.50;;;;;12.90;1.00;;;;;;2267941;61;1105;-87
2023/04/27 01:09:53;556452.00;1.85;959.08;99092.00;0.33;172.00;;;;;12.80;1.00;;;;;;2268090;61;1098;-89
2023/04/27 01:12:20;405810.00;1.35;699.79;92649.00;0.31;160.88;;;;;12.80;1.00;;;;;;2268057;61;1284;-88
2023/04/27 01:14:47;470052.00;1.57;810.28;85847.00;0.29;149.14;;;;;13.00;1.00;;;;;;2268009;61;1682;-88
2023/04/27 01:17:14;539446.00;1.80;929.77;113611.00;0.38;197.06;;;;;13.10;1.00;;;;;;2268017;61;1012;-88
2023/04/27 01:19:43;659778.00;2.20;1137.56;113485.00;0.38;196.84;;;;;13.00;1.00;;;;;;2268104;61;1560;-88
2023/04/27 01:22:10;414938.00;1.38;715.49;118351.00;0.39;205.24;;;;;12.90;1.00;;;;;;2267849;61;1547;-89
2023/04/27 01:24:39;295495.00;0.98;510.18;95469.00;0.32;165.75;;;;;12.80;1.00;;;;;;2268065;61;1056;-89
2023/04/27 01:27:06;323176.00;1.08;557.76;81655.00;0.27;141.90;;;;;12.80;1.00;;;;;;2267853;61;1934;-89
2023/04/27 01:29:33;353616.00;1.18;610.08;78671.00;0.26;136.74;;;;;12.70;1.00;;;;;;2268067;61;1103;-88
2023/04/27 01:32:00;778931.00;2.60;1344.40;168734.00;0.56;292.09;;;;;12.90;1.00;;;;;;2268008;61;1155;-88
2023/04/27 01:34:27;584670.00;1.95;1007.76;132760.00;0.44;230.09;;;;;12.90;1.00;;;;;;2267957;61;1439;-88
2023/04/27 01:36:53;726293.00;2.42;1252.86;126627.00;0.42;219.51;;;;;13.10;1.00;;;;;;2267877;61;1794;-87
2023/04/27 01:39:20;402151.00;1.34;693.50;94578.00;0.32;164.21;;;;;13.00;1.00;;;;;;2267772;61;1041;-89
2023/04/27 01:41:49;371293.00;1.24;640.46;92923.00;0.31;161.35;;;;;12.80;1.00;;;;;;2268061;61;1071;-88
2023/04/27 01:44:16;401000.00;1.34;691.52;93254.00;0.31;161.93;;;;;12.80;1.00;;;;;;2267695;61;1424;-87
2023/04/27 01:46:42;419983.00;1.40;724.16;100357.00;0.33;174.19;;;;;12.80;1.00;;;;;;2267823;61;2000;-89
2023/04/27 01:49:09;708352.00;2.36;1221.72;114846.00;0.38;199.19;;;;;12.80;1.00;;;;;;2267981;61;1102;-87
2023/04/27 01:51:36;369851.00;1.23;637.98;96741.00;0.32;167.95;;;;;12.50;1.00;;;;;;2267867;61;1127;-88
2023/04/27 01:54:03;466783.00;1.56;804.65;93820.00;0.31;162.90;;;;;12.70;1.00;;;;;;2267861;61;1649;-88
2023/04/27 01:56:30;294726.00;0.98;508.85;100571.00;0.34;174.56;;;;;12.60;1.00;;;;;;2267875;61;1038;-88
2023/04/27 01:58:58;775807.00;2.59;1338.96;131508.00;0.44;227.93;;;;;12.50;1.00;;;;;;2267832;61;2314;-87
2023/04/27 02:01:25;478427.00;1.59;824.69;92213.00;0.31;160.13;;;;;12.50;1.00;;;;;;2267795;61;1160;-88
2023/04/27 02:03:52;412587.00;1.38;711.44;109746.00;0.37;190.39;;;;;12.50;1.00;;;;;;2267932;61;1318;-87
2023/04/27 02:06:19;106423.00;0.35;184.66;102649.00;0.34;178.14;;;;;12.50;1.00;;;;;;2267767;61;1993;-87
2023/04/27 02:11:15;357334.00;1.19;616.47;0.00;0.00;0.62;;;;;12.40;1.00;;;;;;2265613;61;1306;-87
2023/04/27 02:13:42;105842.00;0.35;183.65;0.00;0.00;0.62;;;;;12.40;1.00;;;;;;2263822;61;1338;-89
2023/04/27 02:16:10;368480.00;1.23;635.62;21589.00;0.07;38.02;;;;;12.20;1.00;;;;;;2263891;61;1050;-89
2023/04/27 02:18:37;606847.00;2.02;1046.04;133875.00;0.45;232.01;;;;;12.10;1.00;;;;;;2263885;61;1034;-88
2023/04/27 02:21:09;589234.00;1.96;1015.63;46501.00;0.16;81.13;;;;;12.40;1.00;;;;;;2263790;61;1094;-88
2023/04/27 02:23:36;359357.00;1.20;619.94;93823.00;0.31;162.91;;;;;12.40;1.00;;;;;;2263626;61;1345;-89
2023/04/27 02:26:03;330308.00;1.10;570.02;92319.00;0.31;160.31;;;;;12.10;1.00;;;;;;2263861;61;1912;-89
2023/04/27 02:28:31;303757.00;1.01;524.38;99253.00;0.33;172.28;;;;;12.10;1.00;;;;;;2263849;61;1844;-88
2023/04/27 02:30:57;217552.00;0.73;376.13;0.00;0.00;0.62;;;;;12.10;1.00;;;;;;2263882;61;1078;-86
2023/04/27 02:33:26;252826.00;0.84;436.81;0.00;0.00;0.62;;;;;12.10;1.00;;;;;;2263823;61;1372;-88
2023/04/27 02:35:53;318874.00;1.06;550.36;99846.00;0.33;173.31;;;;;12.20;1.00;;;;;;2263946;61;1004;-90
2023/04/27 02:38:20;313855.00;1.05;541.74;0.00;0.00;0.62;;;;;12.30;1.00;;;;;;2263641;61;1024;-89
2023/04/27 02:40:46;367742.00;1.23;634.36;51723.00;0.17;90.17;;;;;12.40;1.00;;;;;;2263777;61;1006;-88
2023/04/27 02:43:13;397055.00;1.32;684.74;0.00;0.00;0.62;;;;;12.50;1.00;;;;;;2263741;61;1274;-89
2023/04/27 02:45:40;532243.00;1.77;917.36;72547.00;0.24;126.16;;;;;12.60;1.00;;;;;;2263549;61;1998;-89
2023/04/27 02:48:07;294606.00;0.98;508.65;0.00;0.00;0.62;;;;;12.30;1.00;;;;;;2263823;61;957;-88
2023/04/27 02:50:41;323653.00;1.08;558.58;51878.00;0.17;90.43;;;;;12.10;1.00;;;;;;2263627;61;1799;-88
2023/04/27 02:55:37;837687.00;2.79;1446.93;133022.00;0.44;230.54;;;;;12.10;1.00;;;;;;2266092;61;1424;-88
2023/04/27 02:58:04;436894.00;1.46;753.24;92141.00;0.31;160.00;;;;;12.20;1.00;;;;;;2264319;61;1078;-90
2023/04/27 03:00:31;449380.00;1.50;774.72;93963.00;0.31;163.15;;;;;12.10;1.00;;;;;;2264301;61;1744;-89
2023/04/27 03:02:58;714707.00;2.38;1232.75;148349.00;0.49;256.96;;;;;12.10;1.00;;;;;;2264291;61;1441;-88
2023/04/27 03:05:27;462310.00;1.54;796.96;112109.00;0.37;194.47;;;;;12.20;1.00;;;;;;2264281;61;1914;-89
2023/04/27 03:07:56;467927.00;1.56;806.62;102930.00;0.34;178.63;;;;;12.10;1.00;;;;;;2269478;55;3820;-87
2023/04/27 03:12:50;749623.00;2.50;1293.40;93574.00;0.31;162.48;;;;;11.90;1.00;;;;;;2265852;61;1498;-88
2023/04/27 03:17:45;594416.00;1.98;1024.58;105603.00;0.35;183.24;;;;;12.00;1.00;;;;;;2265946;61;1709;-87
2023/04/27 03:20:13;289202.00;0.96;499.36;91645.00;0.31;159.15;;;;;12.00;1.00;;;;;;2264344;61;911;-88
2023/04/27 03:25:09;143100.00;0.48;247.91;0.00;0.00;0.62;;;;;11.90;1.00;;;;;;2273956;61;1521;-87
2023/04/27 03:27:36;574894.00;1.92;990.89;28531.00;0.10;50.04;;;;;12.00;1.00;;;;;;2272183;61;1952;-87
2023/04/27 03:30:03;245160.00;0.82;423.63;0.00;0.00;0.62;;;;;12.00;1.00;;;;;;2272513;61;920;-87
2023/04/27 03:32:30;98028.00;0.33;170.17;0.00;0.00;0.62;;;;;12.30;1.00;;;;;;2272182;61;1618;-86
2023/04/27 03:34:57;178766.00;0.60;309.36;0.00;0.00;0.62;;;;;12.40;1.00;;;;;;2272343;61;1026;-88
2023/04/27 03:39:53;375490.00;1.25;647.67;0.00;0.00;0.62;;;;;12.20;1.00;;;;;;2266779;61;1331;-90
2023/04/27 03:42:22;607504.00;2.03;1047.18;72495.00;0.24;126.07;;;;;12.30;1.00;;;;;;2264144;61;1294;-88
2023/04/27 03:44:49;118899040.00;396.33;68089232.00;0.00;0.00;0.62;;;;;12.00;1.00;;;;;;2264296;61;1659;-88
2023/04/27 03:47:15;135619.00;0.45;235.02;0.00;0.00;0.62;;;;;12.20;1.00;;;;;;2264089;61;1920;-88
2023/04/27 03:49:43;200176.00;0.67;346.23;0.00;0.00;0.62;;;;;12.20;1.00;;;;;;2264142;61;1708;-88
2023/04/27 03:52:10;277873.00;0.93;479.88;0.00;0.00;0.62;;;;;12.30;1.00;;;;;;2269996;40;3618;-88
2023/04/27 03:54:36;274386.00;0.91;473.89;0.00;0.00;0.62;;;;;12.40;1.00;;;;;;2268123;61;986;-88
2023/04/27 03:57:04;760814.00;2.54;1312.87;156078.00;0.52;270.28;;;;;12.50;1.00;;;;;;2268261;61;1139;-88
2023/04/27 03:59:32;179032.00;0.60;309.82;0.00;0.00;0.62;;;;;12.50;1.00;;;;;;2268183;61;2105;-87
2023/04/27 04:01:59;180860.00;0.60;312.97;0.00;0.00;0.62;;;;;12.40;1.00;;;;;;2267948;61;1085;-87
2023/04/27 04:04:25;276255.00;0.92;477.10;28410.00;0.09;49.83;;;;;12.40;1.00;;;;;;2268207;61;1182;-87
2023/04/27 04:06:52;469987.00;1.57;810.17;50024.00;0.17;87.23;;;;;12.60;1.00;;;;;;2267837;61;1919;-90
2023/04/27 04:09:19;126914.00;0.42;220.01;0.00;0.00;0.62;;;;;12.30;1.00;;;;;;2268135;61;985;-89
2023/04/27 04:11:46;207457.00;0.69;358.76;0.00;0.00;0.62;;;;;12.00;1.00;;;;;;2267989;61;2358;-89
2023/04/27 04:14:13;548717.00;1.83;945.75;35004.00;0.12;61.24;;;;;12.20;1.00;;;;;;2268212;61;1354;-88
2023/04/27 04:16:41;392335.00;1.31;676.63;0.00;0.00;0.62;;;;;12.30;1.00;;;;;;2268006;61;1676;-87
2023/04/27 04:19:08;274650.00;0.92;474.34;0.00;0.00;0.62;;;;;12.30;1.00;;;;;;2268142;61;2376;-88
2023/04/27 04:24:03;487340.00;1.62;840.03;0.00;0.00;0.62;;;;;12.10;1.00;;;;;;2265445;61;1421;-87
2023/04/27 04:26:31;145523.00;0.49;252.09;0.00;0.00;0.62;;;;;12.20;1.00;;;;;;2263913;61;2011;-87
2023/04/27 04:28:58;321107.00;1.07;554.20;0.00;0.00;0.62;;;;;12.20;1.00;;;;;;2264068;61;1237;-87
2023/04/27 04:31:25;326364.00;1.09;563.24;0.00;0.00;0.62;;;;;12.20;1.00;;;;;;2263969;61;1039;-88
2023/04/27 04:36:27;375094.00;1.25;646.99;0.00;0.00;0.62;;;;;12.10;1.00;;;;;;2265719;61;1400;-88
2023/04/27 04:38:55;205698.00;0.69;355.73;0.00;0.00;0.62;;;;;12.10;1.00;;;;;;2263666;61;1033;-87
2023/04/27 04:43:52;823938.00;2.75;1422.90;129870.00;0.43;225.11;;;;;11.90;1.00;;;;;;2265868;61;1268;-87
2023/04/27 04:46:21;159214.00;0.53;275.69;0.00;0.00;0.62;;;;;12.00;1.00;;;;;;2264023;61;1994;-88
2023/04/27 04:48:47;250554.00;0.84;432.90;0.00;0.00;0.62;;;;;12.10;1.00;;;;;;2264003;61;1163;-89
2023/04/27 04:51:14;525201.00;1.75;905.22;84945.00;0.28;147.58;;;;;12.00;1.00;;;;;;2264016;61;1022;-89
2023/04/27 04:53:43;367105.00;1.22;633.26;4076.00;0.01;7.68;;;;;12.20;1.00;;;;;;2263941;61;1344;-87
2023/04/27 05:03:33;510087.00;1.70;879.19;107552.00;0.36;186.61;;;;;12.60;1.00;;;;;;2266067;61;1413;-89
2023/04/27 05:06:00;407790.00;1.36;703.20;95771.00;0.32;166.27;;;;;12.60;1.00;;;;;;2264008;61;1998;-87
2023/04/27 05:08:27;494996.00;1.65;853.21;122164.00;0.41;211.82;;;;;12.60;1.00;;;;;;2263899;61;996;-87
2023/04/27 05:10:55;548502.00;1.83;945.38;91286.00;0.30;158.53;;;;;12.70;1.00;;;;;;2263974;61;1615;-89
2023/04/27 05:13:23;397134.00;1.32;684.88;97168.00;0.32;168.68;;;;;12.70;1.00;;;;;;2263823;61;1615;-87
2023/04/27 05:15:50;298322.00;0.99;515.04;75228.00;0.25;130.79;;;;;12.90;1.00;;;;;;2263750;61;1805;-88
2023/04/27 05:18:18;338531.00;1.13;584.15;0.00;0.00;0.62;;;;;13.10;1.00;;;;;;2263682;61;1001;-90
2023/04/27 05:20:45;195531.00;0.65;338.23;0.00;0.00;0.62;;;;;13.20;1.00;;;;;;2263862;61;1578;-88
2023/04/27 05:23:12;295979.00;0.99;511.01;0.00;0.00;0.62;;;;;13.30;1.00;;;;;;2263719;61;1423;-88
2023/04/27 05:28:10;313373.00;1.04;540.91;40429.00;0.13;70.63;;;;;13.40;1.00;;;;;;2265808;61;1906;-88
2023/04/27 05:30:38;133516.00;0.45;231.39;0.00;0.00;0.62;;;;;13.60;1.00;;;;;;2263949;61;1027;-89
2023/04/27 05:33:05;630312.00;2.10;1086.59;43644.00;0.15;76.19;;;;;13.70;1.00;;;;;;2263573;61;1413;-89
2023/04/27 05:35:32;140072.00;0.47;242.70;0.00;0.00;0.62;;;;;13.80;1.00;;;;;;2267587;55;3743;-89
2023/04/27 05:40:30;765469.00;2.55;1320.97;0.00;0.00;0.62;;;;;14.00;1.00;;;;;;2265894;61;1384;-89
2023/04/27 05:53:00;1089044.00;3.63;1890.84;107941.00;0.36;187.28;;;;;15.00;1.00;;;;;;2266058;61;1313;-91
2023/04/27 05:55:27;408377.00;1.36;704.21;100475.00;0.33;174.39;;;;;15.30;1.00;;;;;;2264506;61;890;-87
2023/04/27 06:00:24;1085515.00;3.62;1884.54;96614.00;0.32;167.73;;;;;15.90;1.00;;;;;;2265264;61;1227;-88
2023/04/27 06:02:51;117769584.00;392.57;66165504.00;60687.00;0.20;105.66;;;;;16.20;1.00;;;;;;2263782;61;1377;-87
2023/04/27 06:05:18;402780.00;1.34;694.58;99991.00;0.33;173.56;;;;;17.00;1.00;;;;;;2263529;61;1049;-89
2023/04/27 06:07:45;275598.00;0.92;475.97;92408.00;0.31;160.47;;;;;17.30;1.00;;;;;;2263747;61;1997;-89
2023/04/27 06:10:15;595214.00;1.98;1025.96;82335.00;0.27;143.07;;;;;17.60;1.00;;;;;;2263739;61;1029;-88
2023/04/27 06:12:42;461126.00;1.54;794.92;96580.00;0.32;167.67;;;;;17.90;1.00;;;;;;2263854;61;1316;-88
2023/04/27 06:15:10;291264.00;0.97;502.90;75484.00;0.25;131.24;;;;;17.80;1.00;;;;;;2263808;61;1023;-88
2023/04/27 06:17:37;478743.00;1.60;825.23;89229.00;0.30;154.98;;;;;17.20;1.00;;;;;;2263987;61;1114;-87
2023/04/27 06:20:05;586493.00;1.95;1010.90;161543.00;0.54;279.70;;;;;16.90;1.00;;;;;;2263951;61;1130;-86
2023/04/27 06:22:32;350444.00;1.17;604.62;135279.00;0.45;234.43;;;;;16.90;1.00;;;;;;2263809;61;1377;-87
2023/04/27 06:24:59;413954.00;1.38;713.80;55528.00;0.19;96.75;;;;;17.20;1.00;;;;;;2263814;61;2231;-87
2023/04/27 06:29:55;461906.00;1.54;796.26;0.00;0.00;0.62;;;;;17.20;1.00;;;;;;2266282;61;1310;-89
2023/04/27 06:32:22;470434.00;1.57;810.94;158724.00;0.53;274.84;;;;;17.80;1.00;;;;;;2264932;61;1272;-89
2023/04/27 06:34:49;499596.00;1.67;861.13;105334.00;0.35;182.78;;;;;18.00;1.00;;;;;;2264944;61;1120;-89
2023/04/27 06:37:16;288361.00;0.96;497.91;90039.00;0.30;156.38;;;;;18.00;1.00;;;;;;2264699;61;1131;-88
2023/04/27 06:39:44;197868.00;0.66;342.25;0.00;0.00;0.62;;;;;17.80;1.00;;;;;;2264392;61;902;-88
2023/04/27 06:44:40;372380.00;1.24;642.33;87230.00;0.29;151.52;;;;;17.70;1.00;;;;;;2271071;61;1322;-86
2023/04/27 06:47:09;311995.00;1.04;538.54;81979.00;0.27;142.46;;;;;17.90;1.00;;;;;;2269102;61;2001;-87
2023/04/27 06:49:35;387559.00;1.29;668.42;93847.00;0.31;162.95;;;;;17.60;1.00;;;;;;2269163;61;989;-86
2023/04/27 06:52:03;210164.00;0.70;363.42;99668.00;0.33;173.00;;;;;17.60;1.00;;;;;;2268977;61;1044;-88
2023/04/27 06:54:30;301449.00;1.00;520.41;100706.00;0.34;174.79;;;;;17.50;1.00;;;;;;2265003;61;925;-89
2023/04/27 06:56:57;373374.00;1.24;644.04;100048.00;0.33;173.65;;;;;17.30;1.00;;;;;;2264086;61;1029;-86
2023/04/27 06:59:24;316373.00;1.05;546.06;72933.00;0.24;126.83;;;;;17.50;1.00;;;;;;2264289;61;1168;-89
2023/04/27 07:04:20;534419.00;1.78;921.11;93590.00;0.31;162.51;;;;;17.60;1.00;;;;;;2266175;61;1410;-87
2023/04/27 07:09:15;639091.00;2.13;1101.77;90191.00;0.30;156.64;;;;;18.00;1.00;;;;;;2266357;61;2024;-86
2023/04/27 07:11:42;257162.00;0.86;444.27;90864.00;0.30;157.80;;;;;18.50;1.00;;;;;;2270189;55;3748;-87
2023/04/27 07:14:09;217466.00;0.72;375.98;85383.00;0.28;148.33;;;;;18.80;1.00;;;;;;2268378;61;1341;-87
2023/04/27 07:16:36;276926.00;0.92;478.25;89450.00;0.30;155.36;;;;;19.20;1.00;;;;;;2268537;61;942;-87
2023/04/27 07:19:03;366402.00;1.22;632.05;87365.00;0.29;151.76;;;;;19.20;1.00;;;;;;2268387;61;1098;-86
2023/04/27 07:21:32;656186.00;2.19;1131.34;172050.00;0.57;297.80;;;;;18.50;1.00;;;;;;2268352;61;1100;-87
2023/04/27 07:23:59;209300.00;0.70;361.93;88205.00;0.29;153.21;;;;;19.70;1.00;;;;;;2268350;61;1333;-88
2023/04/27 07:26:26;295144.00;0.98;509.57;80167.00;0.27;139.33;;;;;20.30;1.00;;;;;;2268389;61;1028;-88
2023/04/27 07:36:35;976602.00;3.26;1691.07;125084.00;0.42;216.85;;;;;21.50;1.00;;;;;;2266126;61;1457;-89
2023/04/27 07:41:34;1000145.00;3.33;1732.73;87540.00;0.29;152.06;;;;;22.50;1.00;;;;;;2266198;61;1389;-87
2023/04/27 07:46:30;1213461.00;4.04;2114.58;110830.00;0.37;192.26;;;;;23.10;1.00;;;;;;2265805;61;1415;-89
2023/04/27 07:51:27;1218270.00;4.06;2123.29;85260.00;0.28;148.12;;;;;23.90;1.00;;;;;;2274299;61;1246;-85
2023/04/27 07:56:23;929590.00;3.10;1608.15;126301.00;0.42;218.95;;;;;25.20;1.00;;;;;;2269999;55;3741;-87
2023/04/27 08:01:18;788396.00;2.63;1360.89;0.00;0.00;0.62;;;;;24.80;1.00;;;;;;1560209;56;3516;-87
2023/04/27 08:03:45;1091484.00;3.64;1895.20;109915.00;0.37;190.68;;;;;24.00;1.00;;;;;;2282492;40;3636;-86
2023/04/27 08:06:12;960329.00;3.20;1662.33;132077.00;0.44;228.91;;;;;23.50;1.00;;;;;;2276448;61;1195;-87
2023/04/27 08:08:39;854719.00;2.85;1476.73;113764.00;0.38;197.32;;;;;23.20;1.00;;;;;;2276346;61;2023;-87
2023/04/27 08:11:10;876724.00;2.92;1515.28;154158.00;0.51;266.97;;;;;22.50;1.00;;;;;;2276211;61;1567;-89
2023/04/27 08:13:39;698332.00;2.33;1204.35;34775.00;0.12;60.85;;;;;22.60;1.00;;;;;;2276435;61;1718;-88
2023/04/27 08:16:06;505645.00;1.69;871.54;46598.00;0.16;81.30;;;;;22.70;1.00;;;;;;2276422;61;1137;-87
2023/04/27 08:18:33;633518.00;2.11;1092.13;29882.00;0.10;52.38;;;;;23.20;1.00;;;;;;2276234;61;1450;-88
2023/04/27 08:21:00;703572.00;2.35;1213.43;48675.00;0.16;84.89;;;;;23.50;1.00;;;;;;2276310;61;2341;-87
2023/04/27 08:28:30;761552.00;2.54;1314.15;19133.00;0.06;33.77;;;;;23.30;1.00;;;;;;2309873;39;3430;-87
2023/04/27 08:30:58;520973.00;1.74;897.94;0.00;0.00;0.62;;;;;23.50;1.00;;;;;;2268179;61;2315;-85
2023/04/27 08:35:54;620289.00;2.07;1069.27;0.00;0.00;0.62;;;;;24.20;1.00;;;;;;2265629;61;1353;-87
2023/04/27 08:38:21;486774.00;1.62;839.06;0.00;0.00;0.62;;;;;25.10;1.00;;;;;;2264062;61;1132;-88
2023/04/27 08:40:48;486236.00;1.62;838.13;0.00;0.00;0.62;;;;;24.90;1.00;;;;;;2264099;61;1123;-87
2023/04/27 08:43:15;516520.00;1.72;890.27;0.00;0.00;0.62;;;;;24.70;1.00;;;;;;2264062;61;1722;-88
2023/04/27 08:45:49;692258.00;2.31;1193.82;37283.00;0.12;65.19;;;;;25.20;1.00;;;;;;2264226;61;1094;-87
2023/04/27 08:48:17;726031.00;2.42;1252.41;29154.00;0.10;51.12;;;;;24.90;1.00;;;;;;2263903;61;1998;-88
2023/04/27 08:50:45;384656.00;1.28;663.43;17052.00;0.06;30.16;;;;;25.40;1.00;;;;;;2264224;61;918;-86
2023/04/27 08:53:20;330390.00;1.10;570.16;38468.00;0.13;67.24;;;;;25.20;1.00;;;;;;2263936;61;1292;-87
2023/04/27 08:55:49;426098.00;1.42;734.68;0.00;0.00;0.62;;;;;24.70;1.00;;;;;;2264192;61;1160;-85
2023/04/27 08:58:16;582247.00;1.94;1003.58;108756.00;0.36;188.68;;;;;24.00;1.00;;;;;;2264053;61;1221;-86
2023/04/27 09:00:45;457696.00;1.53;789.02;0.00;0.00;0.62;;;;;24.30;1.00;;;;;;2264129;61;1663;-87
2023/04/27 09:03:23;301304.00;1.00;520.16;16017.00;0.05;28.37;;;;;24.10;1.00;;;;;;2264190;61;1269;-86
2023/04/27 09:05:50;83488.00;0.28;145.06;0.00;0.00;0.62;;;;;23.90;1.00;;;;;;2264179;61;1595;-86
2023/04/27 09:08:17;212682.00;0.71;367.75;16979.00;0.06;30.04;;;;;23.60;1.00;;;;;;2264213;61;1938;-87
2023/04/27 09:10:45;285124.00;0.95;492.35;124380.00;0.41;215.64;;;;;22.90;1.00;;;;;;2263939;61;1087;-87
2023/04/27 09:13:12;316182.00;1.05;545.74;24981.00;0.08;43.89;;;;;22.20;1.00;;;;;;2305961;56;3778;-89
2023/04/27 09:20:45;831208.00;2.77;1435.61;31736.00;0.11;55.59;;;;;22.10;1.00;;;;;;2288134;40;3614;-87
2023/04/27 09:23:25;983978.00;3.28;1704.12;103354.00;0.34;179.36;;;;;22.00;1.00;;;;;;2267642;61;1881;-87
2023/04/27 09:25:52;221122.00;0.74;382.27;0.00;0.00;0.62;;;;;22.50;1.00;;;;;;2281195;40;3775;-85
2023/04/27 09:28:18;666889.00;2.22;1149.87;0.00;0.00;0.62;;;;;22.30;1.00;;;;;;2291649;56;3752;-86
2023/04/27 09:35:45;860467.00;2.87;1486.79;66549.00;0.22;115.80;;;;;22.50;1.00;;;;;;2265745;61;1413;-87
2023/04/27 10:10:31;384745.00;1.28;663.58;0.00;0.00;0.62;;;;;21.90;1.00;;;;;;2381525;40;3558;-87
2023/04/27 10:20:31;446563.00;1.49;769.87;0.00;0.00;0.62;;;;;22.20;1.00;;;;;;1094784;40;3558;-89
2023/04/27 10:25:36;513554.00;1.71;885.16;0.00;0.00;0.62;;;;;22.40;1.00;;;;;;2290175;55;3634;-86
2023/04/27 10:35:35;569989.00;1.90;982.43;0.00;0.00;0.62;;;;;20.60;1.00;;;;;;2266988;61;1183;-86
2023/04/27 10:40:35;227221.00;0.76;392.77;0.00;0.00;0.62;;;;;21.00;1.00;;;;;;2266151;61;1409;-87
2023/04/27 10:43:09;229144.00;0.76;396.08;0.00;0.00;0.62;;;;;21.10;1.00;;;;;;2264630;61;1454;-87
2023/04/27 10:50:31;203868.00;0.68;352.58;0.00;0.00;0.62;;;;;21.40;1.00;;;;;;2266535;61;1379;-86
2023/04/27 10:53:01;276793.00;0.92;478.02;65226.00;0.22;113.51;;;;;21.20;1.00;;;;;;2264702;61;1306;-87
2023/04/27 11:00:36;314885.00;1.05;543.51;0.00;0.00;0.62;;;;;21.40;1.00;;;;;;2266663;61;1100;-85
2023/04/27 11:03:21;142127.00;0.47;246.24;0.00;0.00;0.62;;;;;21.40;1.00;;;;;;2264615;61;1475;-87
2023/04/27 11:13:18;393954.00;1.31;679.41;0.00;0.00;0.62;;;;;22.00;1.00;;;;;;2295426;40;3698;-88
2023/04/27 11:15:49;21552.00;0.07;37.96;0.00;0.00;0.62;;;;;22.10;1.00;;;;;;2268609;61;1002;-87
2023/04/27 11:18:18;187856.00;0.63;325.02;6437.00;0.02;11.78;;;;;21.80;1.00;;;;;;2268560;61;968;-86
2023/04/27 11:20:45;23927.00;0.08;42.07;0.00;0.00;0.62;;;;;21.50;1.00;;;;;;2268602;61;1051;-86
2023/04/27 11:23:23;58712.00;0.20;102.25;0.00;0.00;0.62;;;;;21.80;1.00;;;;;;2268594;61;1392;-87
2023/04/27 11:25:51;13545.00;0.05;24.09;0.00;0.00;0.62;;;;;22.40;1.00;;;;;;2268488;61;996;-86
2023/04/27 11:30:48;379296.00;1.26;654.22;0.00;0.00;0.62;;;;;22.00;1.00;;;;;;2278284;55;3712;-85
2023/04/27 11:33:15;25613.00;0.09;44.99;0.00;0.00;0.62;;;;;22.20;1.00;;;;;;2268583;61;1394;-86
2023/04/27 11:35:42;54965.00;0.18;95.77;0.00;0.00;0.62;;;;;22.00;1.00;;;;;;2268445;61;1293;-87
2023/04/27 11:40:41;378122.00;1.26;652.20;0.00;0.00;0.62;;;;;22.50;1.00;;;;;;2278638;61;1245;-87
2023/04/27 11:43:12;233909.00;0.78;404.27;7309.00;0.02;13.29;;;;;22.20;1.00;;;;;;2276630;61;1375;-88
2023/04/27 11:45:43;30187.00;0.10;52.91;0.00;0.00;0.62;;;;;22.10;1.00;;;;;;2276507;61;1102;-85
2023/04/27 11:48:15;44218.00;0.15;77.19;0.00;0.00;0.62;;;;;22.00;1.00;;;;;;2276178;61;1911;-85
2023/04/27 11:50:46;121454.00;0.40;210.59;0.00;0.00;0.62;;;;;21.50;1.00;;;;;;2276627;61;1746;-87
2023/04/27 11:55:41;129789.00;0.43;224.97;0.00;0.00;0.62;;;;;22.00;1.00;;;;;;2265768;61;1401;-85
2023/04/27 11:58:14;102238.00;0.34;177.43;16679.00;0.06;29.52;;;;;22.70;1.00;;;;;;2264220;61;1722;-87
2023/04/27 12:00:41;34080.00;0.11;59.64;0.00;0.00;0.62;;;;;22.70;1.00;;;;;;2264451;61;1047;-87
2023/04/27 12:03:08;121510.00;0.41;210.69;12604.00;0.04;22.46;;;;;22.80;1.00;;;;;;2264194;61;1442;-86
2023/04/27 12:05:47;64943.00;0.22;113.02;0.00;0.00;0.62;;;;;23.10;1.00;;;;;;2337173;55;3795;-86
2023/04/27 12:08:14;14656.00;0.05;26.01;0.00;0.00;0.62;;;;;23.00;1.00;;;;;;2268420;61;1912;-87
2023/04/27 12:10:41;13849.00;0.05;24.62;0.00;0.00;0.62;;;;;23.10;1.00;;;;;;2268464;61;1134;-87
2023/04/27 12:13:08;31616.00;0.11;55.38;0.00;0.00;0.62;;;;;23.50;1.00;;;;;;2268425;61;1428;-88
2023/04/27 12:15:35;195483.00;0.65;338.15;38837.00;0.13;67.88;;;;;23.60;1.00;;;;;;2268381;61;1125;-86
2023/04/27 12:18:02;7994.00;0.03;14.47;0.00;0.00;0.62;;;;;23.70;1.00;;;;;;2268313;61;1083;-87
2023/04/27 12:20:29;0.00;0.00;0.62;0.00;0.00;0.62;;;;;23.60;1.00;;;;;;2268250;61;1542;-87
2023/04/27 12:22:58;57896.00;0.19;100.84;0.00;0.00;0.62;;;;;23.80;1.00;;;;;;2268282;61;1386;-88
2023/04/27 12:25:25;120958.00;0.40;209.73;0.00;0.00;0.62;;;;;23.60;1.00;;;;;;2268308;61;1035;-86
2023/04/27 12:27:52;51651.00;0.17;90.04;0.00;0.00;0.62;;;;;23.30;1.00;;;;;;2275964;40;3616;-87
2023/04/27 12:30:20;101273.00;0.34;175.77;0.00;0.00;0.62;;;;;23.60;1.00;;;;;;2280355;40;3791;-86
2023/04/27 12:35:17;155925.00;0.52;270.02;0.00;0.00;0.62;;;;;23.90;1.00;;;;;;2266304;61;1421;-87